Time;durP1;ratioP1;P1;durP2;ratioP2;P2;SDS_P1;SDS_P2;PMS_P1;PMS_P2;Temp;Humidity;BMP_temperature;BMP_pressure;BME280_temperature;BME280_humidity;BME280_pressure;Samples;Min_cycle;Max_cycle;Signal;HPM_P1;HPM_P2
2021/01/18 00:01:34;;;;;;;20.70;16.10;;;;;;;14.22;44.70;102128.59;5093556;28;20416;-74
2021/01/18 00:04:00;;;;;;;8.45;3.65;;;;;;;14.18;44.73;102132.25;5093868;28;20024;-74
2021/01/18 00:06:26;;;;;;;8.15;3.72;;;;;;;14.32;44.46;102135.84;5093835;28;20031;-74
2021/01/18 00:08:52;;;;;;;8.85;3.20;;;;;;;14.26;44.63;102132.38;5093413;28;20360;-74
2021/01/18 00:11:20;;;;;;;6.97;3.15;;;;;;;14.27;44.41;102135.94;5093387;28;20043;-74
2021/01/18 00:13:47;;;;;;;6.28;3.70;;;;;;;14.11;44.86;102130.72;5093730;28;20077;-75
2021/01/18 00:16:14;;;;;;;7.30;3.85;;;;;;;14.10;44.87;102131.84;5093386;28;20028;-74
2021/01/18 00:18:40;;;;;;;23.88;5.10;;;;;;;14.19;44.70;102129.19;5094510;28;20028;-75
2021/01/18 00:21:06;;;;;;;18.67;4.68;;;;;;;13.96;45.44;102133.75;5093804;28;20032;-75
2021/01/18 00:23:32;;;;;;;8.40;3.40;;;;;;;14.11;45.00;102125.22;5093195;28;20035;-74
2021/01/18 00:25:58;;;;;;;10.07;3.53;;;;;;;14.29;44.53;102111.72;5094339;28;20383;-74
2021/01/18 00:28:23;;;;;;;8.00;3.95;;;;;;;13.79;46.09;102117.00;5093810;28;20032;-74
2021/01/18 00:30:49;;;;;;;8.05;3.70;;;;;;;14.06;45.19;102108.03;5094020;28;20458;-74
2021/01/18 00:33:14;;;;;;;7.40;3.22;;;;;;;13.67;46.59;102114.72;5093694;28;20043;-74
2021/01/18 00:35:40;;;;;;;5.47;3.38;;;;;;;13.94;45.84;102105.75;5093040;28;20063;-75
2021/01/18 00:38:06;;;;;;;8.10;3.58;;;;;;;13.77;46.36;102114.56;5094856;28;20057;-74
2021/01/18 00:40:31;;;;;;;6.03;3.22;;;;;;;14.27;45.20;102103.75;5093293;28;20028;-75
2021/01/18 00:42:59;;;;;;;8.77;2.80;;;;;;;14.23;45.29;102093.69;5093001;28;20046;-74
2021/01/18 00:45:26;;;;;;;7.88;2.85;;;;;;;14.05;45.52;102096.19;5092989;28;20024;-74
2021/01/18 00:47:56;;;;;;;7.47;3.22;;;;;;;14.63;44.00;102090.13;5074104;28;20359;-74
2021/01/18 00:50:24;;;;;;;6.03;3.22;;;;;;;14.62;43.96;102096.75;5092707;28;20016;-74
2021/01/18 00:52:51;;;;;;;6.95;3.58;;;;;;;14.34;44.54;102084.09;5092767;28;20115;-74
2021/01/18 00:55:19;;;;;;;8.02;3.85;;;;;;;14.34;44.73;102086.84;5092323;28;20028;-74
2021/01/18 00:57:46;;;;;;;7.13;3.15;;;;;;;14.40;44.43;102075.44;5092699;28;20406;-74
2021/01/18 01:00:22;;;;;;;4.80;3.15;;;;;;;14.11;45.19;102075.75;5092645;28;20114;-75
2021/01/18 01:02:50;;;;;;;7.10;4.07;;;;;;;14.15;45.17;102076.78;5091230;28;20043;-74
2021/01/18 01:05:21;;;;;;;6.22;3.05;;;;;;;14.31;44.57;102060.78;5094432;28;20104;-75
2021/01/18 01:07:55;;;;;;;9.88;3.70;;;;;;;14.32;44.57;102072.59;5092601;28;20032;-74
2021/01/18 01:10:23;;;;;;;6.20;2.72;;;;;;;14.11;45.23;102069.44;5093709;28;20048;-75
2021/01/18 01:13:00;;;;;;;6.03;3.67;;;;;;;14.32;44.42;102056.91;5093656;28;20024;-75
2021/01/18 01:15:26;;;;;;;9.55;3.75;;;;;;;14.16;44.90;102058.34;5092577;28;20466;-74
2021/01/18 01:17:52;;;;;;;5.07;3.47;;;;;;;14.02;45.44;102050.09;5091298;28;20036;-74
2021/01/18 01:20:19;;;;;;;4.53;2.90;;;;;;;14.18;45.22;102049.78;5093881;28;20032;-74
2021/01/18 01:22:46;;;;;;;6.32;3.00;;;;;;;14.06;45.31;102042.88;5093075;28;20028;-75
2021/01/18 01:25:13;;;;;;;6.32;2.92;;;;;;;13.93;45.99;102045.63;5074674;28;20020;-75
2021/01/18 01:27:40;;;;;;;7.22;3.33;;;;;;;13.96;46.35;102048.56;5091633;28;20032;-74
2021/01/18 01:30:08;;;;;;;6.55;3.13;;;;;;;14.35;45.27;102049.97;5093563;28;20557;-75
2021/01/18 01:32:37;;;;;;;5.00;3.00;;;;;;;14.07;46.16;102049.19;5094808;28;20028;-74
2021/01/18 01:35:05;;;;;;;6.20;2.67;;;;;;;14.38;45.36;102052.13;5092450;28;20039;-75
2021/01/18 01:37:30;;;;;;;7.60;2.75;;;;;;;14.31;45.57;102051.72;5092841;28;20128;-74
2021/01/18 01:39:56;;;;;;;7.72;2.70;;;;;;;14.59;44.86;102047.06;5093951;28;20157;-75
2021/01/18 01:42:25;;;;;;;8.38;3.33;;;;;;;14.37;45.40;102045.81;5090808;28;20024;-75
2021/01/18 01:44:51;;;;;;;3.97;3.03;;;;;;;14.34;45.47;102054.66;5092402;28;20024;-75
2021/01/18 01:47:50;;;;;;;5.63;2.83;;;;;;;15.07;43.87;102052.81;5093476;28;20024;-75
2021/01/18 01:50:18;;;;;;;7.55;3.05;;;;;;;14.93;44.22;102047.38;5092767;28;20054;-74
2021/01/18 01:52:56;;;;;;;6.68;3.60;;;;;;;14.66;44.85;102045.50;5091747;28;20024;-75
2021/01/18 01:55:32;;;;;;;7.82;2.90;;;;;;;14.85;44.15;102042.59;5093219;28;20032;-75
2021/01/18 01:58:01;;;;;;;6.45;2.65;;;;;;;14.81;44.49;102038.84;5091112;28;20035;-75
2021/01/18 02:00:37;;;;;;;5.05;3.03;;;;;;;14.80;44.51;102028.94;5095492;28;20028;-74
2021/01/18 02:03:05;;;;;;;5.22;3.08;;;;;;;14.75;44.83;102036.53;5096920;28;20028;-75
2021/01/18 02:05:31;;;;;;;6.85;4.15;;;;;;;14.90;44.32;102031.47;5096094;28;20016;-74
2021/01/18 02:08:01;;;;;;;7.20;3.15;;;;;;;14.76;44.63;102027.97;5095992;28;20024;-74
2021/01/18 02:10:27;;;;;;;5.38;3.08;;;;;;;15.02;44.11;102028.16;5096529;28;20033;-78
2021/01/18 02:12:57;;;;;;;5.30;3.20;;;;;;;15.15;43.74;102026.50;5095765;28;20069;-75
2021/01/18 02:15:29;;;;;;;3.97;3.03;;;;;;;14.92;44.42;102029.22;5096104;28;20027;-75
2021/01/18 02:18:28;;;;;;;5.90;3.00;;;;;;;14.90;44.41;102016.91;5095712;28;20024;-74
2021/01/18 02:21:30;;;;;;;6.13;3.55;;;;;;;14.94;44.27;102015.97;5095550;28;20090;-74
2021/01/18 02:24:17;;;;;;;8.05;2.75;;;;;;;14.65;45.18;102021.84;5095822;28;20110;-75
2021/01/18 02:27:10;;;;;;;7.78;3.80;;;;;;;14.78;44.56;102017.44;5095554;28;20028;-74
2021/01/18 02:29:54;;;;;;;6.63;3.95;;;;;;;14.52;45.63;102021.91;5095207;28;20077;-75
2021/01/18 02:32:43;;;;;;;6.28;3.53;;;;;;;14.51;45.65;102021.09;5095423;28;20205;-75
2021/01/18 02:35:19;;;;;;;6.60;3.60;;;;;;;14.53;45.65;102018.03;5095918;28;20032;-75
2021/01/18 02:37:53;;;;;;;7.20;3.63;;;;;;;14.28;46.35;102011.94;5096249;28;20386;-74
2021/01/18 02:40:43;;;;;;;9.23;3.53;;;;;;;14.44;45.55;102021.47;5095945;28;20389;-75
2021/01/18 02:43:13;;;;;;;8.93;3.65;;;;;;;14.60;44.96;102023.91;5097680;28;20085;-75
2021/01/18 02:45:40;;;;;;;7.03;4.30;;;;;;;14.38;45.64;102013.63;5095184;28;20028;-75
2021/01/18 02:48:07;;;;;;;8.05;3.67;;;;;;;14.60;44.93;102010.16;5094995;28;20062;-74
2021/01/18 02:50:34;;;;;;;6.88;3.38;;;;;;;14.74;44.63;102015.66;5093881;28;20482;-75
2021/01/18 02:53:00;;;;;;;5.38;3.35;;;;;;;14.38;45.48;102008.13;5094929;28;20016;-74
2021/01/18 02:55:26;;;;;;;7.45;3.60;;;;;;;14.84;44.30;102007.13;5095557;28;20024;-74
2021/01/18 02:57:53;;;;;;;8.15;3.53;;;;;;;14.57;44.90;102017.09;5095278;28;20027;-74
2021/01/18 03:00:24;;;;;;;7.88;3.88;;;;;;;14.62;44.84;102016.16;5094108;28;20118;-74
2021/01/18 03:03:18;;;;;;;7.75;3.95;;;;;;;14.68;44.69;102026.75;5096439;28;20423;-75
2021/01/18 03:05:55;;;;;;;5.38;4.15;;;;;;;14.61;45.10;102015.34;5095413;28;20059;-75
2021/01/18 03:08:55;;;;;;;9.38;3.85;;;;;;;14.66;45.15;102011.66;5096017;28;20051;-74
2021/01/18 03:11:34;;;;;;;14.27;3.72;;;;;;;14.75;44.82;102017.28;5090351;28;20101;-75
2021/01/18 03:14:10;;;;;;;9.70;3.95;;;;;;;14.70;44.74;102015.44;5096549;28;20020;-74
2021/01/18 03:16:39;;;;;;;7.82;3.33;;;;;;;14.24;46.09;102010.91;5094848;28;20035;-75
2021/01/18 03:19:06;;;;;;;8.27;3.40;;;;;;;14.55;45.44;102000.09;5113303;28;20073;-75
2021/01/18 03:21:33;;;;;;;7.55;3.28;;;;;;;14.58;45.23;102001.38;5096441;28;20032;-74
2021/01/18 03:23:58;;;;;;;8.43;3.70;;;;;;;14.88;44.38;102000.69;5110148;28;20059;-74
2021/01/18 03:26:28;;;;;;;11.73;3.70;;;;;;;14.57;45.15;101997.81;5096561;28;20028;-74
2021/01/18 03:28:54;;;;;;;7.15;3.28;;;;;;;14.82;44.28;101995.66;5095114;28;20039;-74
2021/01/18 03:31:22;;;;;;;7.88;3.17;;;;;;;14.65;44.80;101988.03;5094420;28;20032;-75
2021/01/18 03:33:47;;;;;;;4.97;3.03;;;;;;;14.88;44.20;101992.44;5094866;28;20074;-74
2021/01/18 03:36:13;;;;;;;7.57;3.33;;;;;;;14.86;44.09;101989.19;5094265;28;20032;-74
2021/01/18 03:38:39;;;;;;;8.18;3.75;;;;;;;14.97;43.66;101987.03;5096584;28;20054;-74
2021/01/18 03:41:05;;;;;;;9.45;3.08;;;;;;;14.81;44.11;101983.81;5096743;28;20081;-74
2021/01/18 03:43:31;;;;;;;8.43;3.78;;;;;;;14.85;43.89;101989.50;5095017;28;20020;-74
2021/01/18 03:45:56;;;;;;;11.30;3.65;;;;;;;15.02;43.38;101992.38;5094019;28;20493;-74
2021/01/18 03:48:22;;;;;;;9.60;3.35;;;;;;;14.93;43.70;101986.81;5094685;28;20028;-75
2021/01/18 03:50:50;;;;;;;11.98;3.83;;;;;;;14.81;43.75;101988.47;5096019;28;20031;-91
2021/01/18 03:53:15;;;;;;;9.40;3.38;;;;;;;14.83;43.74;101989.00;5094506;28;20051;-74
2021/01/18 03:55:41;;;;;;;8.48;3.50;;;;;;;14.79;43.98;101982.50;5094231;28;20051;-74
2021/01/18 03:58:07;;;;;;;11.20;3.70;;;;;;;14.74;44.14;101979.88;5110264;28;20031;-74
2021/01/18 04:00:34;;;;;;;7.68;3.35;;;;;;;14.76;44.01;101972.94;5094774;28;20036;-74
2021/01/18 04:03:00;;;;;;;7.30;3.35;;;;;;;14.81;44.08;101970.06;5092521;28;20024;-75
2021/01/18 04:05:27;;;;;;;8.57;3.90;;;;;;;14.81;43.86;101970.06;5094200;28;20020;-75
2021/01/18 04:07:54;;;;;;;11.23;3.90;;;;;;;14.81;43.93;101970.06;5094424;28;20024;-74
2021/01/18 04:10:22;;;;;;;6.10;3.05;;;;;;;14.72;44.13;101963.66;5109539;28;20131;-74
2021/01/18 04:12:49;;;;;;;7.55;3.28;;;;;;;14.67;44.26;101963.78;5093838;28;20077;-75
2021/01/18 04:15:16;;;;;;;8.18;3.75;;;;;;;14.66;44.47;101960.22;5094473;28;20486;-74
2021/01/18 04:17:44;;;;;;;13.20;3.90;;;;;;;14.71;44.23;101960.09;5093492;28;20069;-74
2021/01/18 04:20:10;;;;;;;9.55;3.08;;;;;;;14.77;44.07;101965.50;5109452;28;20028;-74
2021/01/18 04:22:37;;;;;;;6.97;3.20;;;;;;;14.67;44.23;101956.34;5094277;28;20106;-74
2021/01/18 04:25:03;;;;;;;7.80;3.65;;;;;;;14.49;44.66;101962.00;5095908;28;20019;-75
2021/01/18 04:27:29;;;;;;;8.68;3.10;;;;;;;14.33;45.10;101956.81;5093133;28;20028;-74
2021/01/18 04:29:54;;;;;;;11.57;3.63;;;;;;;14.35;44.91;101949.06;5093374;28;20390;-77
2021/01/18 04:32:20;;;;;;;7.90;3.75;;;;;;;14.52;44.50;101951.22;5093039;28;20019;-74
2021/01/18 04:34:45;;;;;;;7.03;3.50;;;;;;;14.31;45.06;101955.50;5096405;28;20107;-75
2021/01/18 04:37:11;;;;;;;13.40;4.57;;;;;;;14.47;44.76;101959.56;5094315;28;20023;-75
2021/01/18 04:39:36;;;;;;;5.15;2.90;;;;;;;14.40;44.73;101956.38;5093465;28;20164;-75
2021/01/18 04:42:02;;;;;;;10.23;3.55;;;;;;;14.35;44.98;101949.06;5093029;28;20035;-75
2021/01/18 04:44:29;;;;;;;7.50;2.95;;;;;;;14.42;44.60;101949.44;5093144;28;20026;-75
2021/01/18 04:46:56;;;;;;;14.25;3.65;;;;;;;14.56;44.40;101945.88;5094065;28;20020;-74
2021/01/18 04:49:23;;;;;;;9.65;3.08;;;;;;;14.58;44.14;101938.13;5093087;28;20020;-75
2021/01/18 04:51:56;;;;;;;7.65;3.38;;;;;;;14.39;44.66;101941.84;5109051;28;20036;-75
2021/01/18 04:54:26;;;;;;;6.03;3.17;;;;;;;14.60;43.98;101946.91;5108659;28;20554;-75
2021/01/18 04:57:10;;;;;;;7.68;3.65;;;;;;;14.58;44.21;101943.63;5095049;28;20035;-74
2021/01/18 04:59:42;;;;;;;9.88;3.20;;;;;;;14.55;44.11;101939.56;5093771;28;20486;-75
2021/01/18 05:02:14;;;;;;;9.07;3.08;;;;;;;14.29;44.62;101941.25;5093487;28;20024;-74
2021/01/18 05:04:42;;;;;;;6.20;2.78;;;;;;;14.62;44.00;101939.97;5092750;28;20024;-74
2021/01/18 05:07:47;;;;;;;5.93;3.05;;;;;;;14.36;44.49;101934.22;5076085;28;20126;-75
2021/01/18 05:10:13;;;;;;;12.73;3.03;;;;;;;14.54;44.12;101940.69;5088414;28;20044;-75
2021/01/18 05:12:43;;;;;;;6.40;3.55;;;;;;;14.61;44.01;101932.84;5092681;28;20024;-75
2021/01/18 05:15:10;;;;;;;8.07;2.58;;;;;;;14.79;43.47;101928.28;5093291;28;20029;-75
2021/01/18 05:17:41;;;;;;;9.52;2.50;;;;;;;14.70;44.11;101919.16;5093712;28;20028;-74
2021/01/18 05:20:11;;;;;;;6.72;2.53;;;;;;;14.70;43.69;101930.16;5092338;28;20085;-74
2021/01/18 05:22:43;;;;;;;5.85;2.72;;;;;;;15.00;43.12;101914.81;5074226;28;20400;-74
2021/01/18 05:25:13;;;;;;;6.95;2.90;;;;;;;14.90;43.23;101915.91;5093237;28;20020;-74
2021/01/18 05:27:58;;;;;;;6.20;2.40;;;;;;;14.70;43.71;101913.63;5093088;28;20024;-74
2021/01/18 05:30:24;;;;;;;5.93;2.65;;;;;;;14.97;43.07;101908.03;5092339;28;20264;-75
2021/01/18 05:33:14;;;;;;;6.35;2.40;;;;;;;14.91;43.23;101903.75;5076420;28;20032;-75
2021/01/18 05:35:45;;;;;;;6.32;2.90;;;;;;;14.97;43.09;101899.75;5075007;28;20047;-75
2021/01/18 05:38:12;;;;;;;6.00;2.28;;;;;;;15.02;43.11;101900.75;5079333;28;20035;-74
2021/01/18 05:40:46;;;;;;;4.68;2.60;;;;;;;14.84;43.69;101886.88;5096284;28;20024;-74
2021/01/18 05:43:16;;;;;;;17.23;2.85;;;;;;;15.00;43.30;101898.31;5097036;28;20031;-75
2021/01/18 05:45:43;;;;;;;9.45;2.38;;;;;;;14.85;43.76;101888.50;5096618;28;20028;-75
2021/01/18 05:48:10;;;;;;;6.75;2.30;;;;;;;15.12;43.09;101892.25;5097634;28;20039;-75
2021/01/18 05:50:38;;;;;;;6.82;2.13;;;;;;;14.90;43.79;101890.31;5096387;28;20035;-75
2021/01/18 05:53:32;;;;;;;9.52;3.08;;;;;;;14.93;43.64;101889.69;5097647;28;20039;-75
2021/01/18 05:56:17;;;;;;;11.48;2.85;;;;;;;15.02;43.08;101901.56;5096079;28;20026;-74
2021/01/18 05:58:44;;;;;;;6.03;2.17;;;;;;;14.97;43.25;101899.75;5078214;28;20031;-75
2021/01/18 06:01:10;;;;;;;11.05;3.70;;;;;;;14.81;43.96;101911.44;5095988;28;20117;-74
2021/01/18 06:03:35;;;;;;;5.88;2.22;;;;;;;15.13;42.83;101896.59;5098572;28;20012;-74
2021/01/18 06:06:01;;;;;;;7.28;2.55;;;;;;;15.30;42.36;101902.19;5095958;28;20033;-75
2021/01/18 06:08:27;;;;;;;5.97;2.15;;;;;;;15.22;42.29;101901.03;5096809;28;20423;-74
2021/01/18 06:11:03;;;;;;;6.32;1.98;;;;;;;15.17;42.26;101905.84;5097694;28;20085;-76
2021/01/18 06:13:33;;;;;;;6.80;2.13;;;;;;;15.12;42.36;101903.25;5095964;28;20474;-74
2021/01/18 06:16:02;;;;;;;;;;;;;;;15.16;42.15;101891.28;5097650;28;20036;-75
2021/01/18 06:18:30;;;;;;;8.50;2.47;;;;;;;15.30;41.74;101893.94;5095617;28;19957;-75
2021/01/18 06:20:57;;;;;;;7.70;2.55;;;;;;;15.30;41.62;101891.19;5096286;28;20032;-74
2021/01/18 06:23:22;;;;;;;4.80;1.85;;;;;;;15.30;42.07;101885.69;5096172;28;20047;-75
2021/01/18 06:25:53;;;;;;;6.40;2.15;;;;;;;15.20;42.08;101884.03;5077359;28;20066;-74
2021/01/18 06:28:34;;;;;;;5.00;1.90;;;;;;;15.23;41.60;101888.06;5096040;28;20059;-74
2021/01/18 06:31:02;;;;;;;4.65;1.75;;;;;;;15.24;41.92;101878.69;5095551;28;20056;-75
2021/01/18 06:33:41;;;;;;;6.07;2.58;;;;;;;15.10;42.43;101883.47;5077948;28;20032;-74
2021/01/18 06:36:19;;;;;;;6.70;2.08;;;;;;;15.27;41.78;101883.56;5095070;28;20058;-75
2021/01/18 06:39:05;;;;;;;7.60;2.08;;;;;;;15.14;41.93;101868.75;5077556;28;20055;-74
2021/01/18 06:41:33;;;;;;;5.18;1.73;;;;;;;15.23;41.90;101866.03;5094190;28;20085;-75
2021/01/18 06:43:59;;;;;;;6.43;2.47;;;;;;;15.12;42.22;101864.72;5076346;28;20027;-74
2021/01/18 06:46:29;;;;;;;4.75;2.10;;;;;;;15.05;41.92;101869.84;5095064;28;20478;-74
2021/01/18 06:48:55;;;;;;;6.45;1.80;;;;;;;15.08;42.02;101858.19;5076895;28;20035;-74
2021/01/18 06:51:23;;;;;;;5.70;2.10;;;;;;;14.77;42.83;101859.00;5076931;28;20738;-74
2021/01/18 06:53:51;;;;;;;9.05;2.22;;;;;;;14.94;42.35;101864.59;5076440;28;20032;-74
2021/01/18 06:56:23;;;;;;;5.78;1.77;;;;;;;14.86;42.47;101848.84;5076357;28;20115;-73
2021/01/18 06:59:02;;;;;;;6.57;2.17;;;;;;;14.98;42.07;101853.78;5076709;28;20024;-74
2021/01/18 07:01:36;;;;;;;11.05;2.40;;;;;;;14.89;42.53;101855.69;5076623;28;20444;-74
2021/01/18 07:04:10;;;;;;;9.85;2.33;;;;;;;14.94;42.34;101852.78;5076803;28;20036;-74
2021/01/18 07:06:37;;;;;;;6.32;2.38;;;;;;;14.94;42.21;101847.28;5094764;28;20081;-74
2021/01/18 07:09:08;;;;;;;10.82;2.15;;;;;;;15.05;42.06;101853.34;5095079;28;20032;-75
2021/01/18 07:11:34;;;;;;;8.85;2.47;;;;;;;14.83;42.62;101851.44;5094669;28;20052;-74
2021/01/18 07:14:04;;;;;;;10.60;2.50;;;;;;;14.86;42.57;101840.59;5094468;28;20516;-74
2021/01/18 07:16:30;;;;;;;7.03;2.65;;;;;;;14.86;42.42;101846.09;5094968;28;20145;-75
2021/01/18 07:18:58;;;;;;;7.78;2.45;;;;;;;14.79;42.69;101828.41;5095106;28;20489;-74
2021/01/18 07:21:29;;;;;;;7.28;2.08;;;;;;;14.68;43.04;101836.94;5095052;28;20028;-74
2021/01/18 07:24:00;;;;;;;14.43;2.50;;;;;;;14.80;42.75;101838.28;5077346;28;20035;-74
2021/01/18 07:26:49;;;;;;;8.00;1.92;;;;;;;14.87;42.43;101836.72;5095463;28;20107;-74
2021/01/18 07:29:18;;;;;;;10.18;1.88;;;;;;;14.95;42.40;101835.13;5095547;28;20028;-75
2021/01/18 07:31:49;;;;;;;5.50;1.90;;;;;;;14.89;42.42;101833.66;5094268;28;20124;-75
2021/01/18 07:34:21;;;;;;;4.13;1.83;;;;;;;14.58;42.84;101825.34;5076641;28;20036;-74
2021/01/18 07:36:47;;;;;;;7.95;1.92;;;;;;;14.93;42.49;101829.94;5075992;28;20122;-73
2021/01/18 07:39:29;;;;;;;10.13;2.95;;;;;;;15.33;41.17;101834.66;5078205;28;20028;-78
2021/01/18 07:41:55;;;;;;;7.25;1.77;;;;;;;15.41;41.30;101828.34;5093839;28;20024;-74
2021/01/18 07:44:42;;;;;;;11.98;3.47;;;;;;;15.21;41.55;101824.25;5094024;28;20479;-74
2021/01/18 07:47:12;;;;;;;6.15;1.90;;;;;;;15.34;41.25;101826.09;5093985;28;20032;-73
2021/01/18 07:49:47;;;;;;;6.45;2.20;;;;;;;14.88;42.46;101819.06;5094015;28;20024;-74
2021/01/18 07:52:18;;;;;;;4.80;1.60;;;;;;;14.76;42.64;101818.03;5093940;28;20080;-74
2021/01/18 07:54:45;;;;;;;6.60;1.98;;;;;;;14.88;42.71;101821.81;5058991;28;20032;-74
2021/01/18 07:57:29;;;;;;;5.72;1.73;;;;;;;14.86;42.47;101818.56;5075652;28;20028;-74
2021/01/18 08:00:17;;;;;;;6.55;1.65;;;;;;;15.15;42.07;101814.50;5076412;28;20487;-75
2021/01/18 08:03:05;;;;;;;8.05;2.03;;;;;;;15.37;41.40;101822.69;5095557;28;20386;-75
2021/01/18 08:05:39;;;;;;;7.57;1.70;;;;;;;15.42;41.06;101817.03;5093649;28;20031;-75
2021/01/18 08:08:31;;;;;;;3.17;1.63;;;;;;;15.49;41.00;101811.03;5093610;28;20055;-74
2021/01/18 08:11:03;;;;;;;7.90;1.88;;;;;;;15.53;40.79;101814.78;5072374;28;20058;-74
2021/01/18 08:13:39;;;;;;;5.63;1.83;;;;;;;14.94;42.27;101803.25;5109326;28;20467;-75
2021/01/18 08:16:42;;;;;;;5.47;1.90;;;;;;;14.74;42.69;101803.81;5093670;28;20073;-76
2021/01/18 08:19:20;;;;;;;8.55;1.88;;;;;;;14.88;42.22;101805.31;5093482;28;20074;-75
2021/01/18 08:21:54;;;;;;;10.05;3.13;;;;;;;15.00;42.28;101801.97;5092277;28;20149;-75
2021/01/18 08:24:23;;;;;;;7.50;2.03;;;;;;;14.96;42.13;101804.56;5093883;28;20061;-76
2021/01/18 08:27:00;;;;;;;6.03;1.50;;;;;;;15.12;41.88;101801.41;5109145;28;20024;-74
2021/01/18 08:29:45;;;;;;;9.73;2.17;;;;;;;14.94;42.31;101800.50;5093263;28;20020;-76
2021/01/18 08:32:22;;;;;;;5.47;2.00;;;;;;;14.80;42.63;101795.06;5093284;28;20036;-75
2021/01/18 08:35:01;;;;;;;5.80;2.35;;;;;;;14.87;42.67;101792.69;5093159;28;20078;-75
2021/01/18 08:37:29;;;;;;;5.95;1.92;;;;;;;15.08;42.23;101792.94;5093205;28;20497;-90
2021/01/18 08:40:03;;;;;;;8.82;2.08;;;;;;;15.06;42.43;101791.66;5093321;28;20066;-75
2021/01/18 08:42:33;;;;;;;10.55;5.65;;;;;;;15.12;41.97;101787.63;5093165;28;20036;-84
2021/01/18 08:45:11;;;;;;;11.65;3.20;;;;;;;14.89;42.77;101789.63;5093420;28;20042;-73
2021/01/18 08:47:41;;;;;;;13.15;2.63;;;;;;;15.08;42.30;101781.94;5093039;28;20111;-73
2021/01/18 08:50:39;;;;;;;16.70;8.95;;;;;;;15.09;42.30;101777.25;5092676;28;20036;-73
2021/01/18 08:53:26;;;;;;;16.25;8.80;;;;;;;14.94;42.66;101773.78;5070428;28;20490;-72
2021/01/18 08:55:59;;;;;;;10.32;3.90;;;;;;;14.92;42.33;101764.22;5070687;28;20047;-78
2021/01/18 08:58:38;;;;;;;27.85;19.23;;;;;;;15.02;42.29;101763.94;5071997;28;20039;-83
2021/01/18 09:01:30;;;;;;;186.00;142.35;;;;;;;15.03;42.37;101764.75;5068275;28;20040;-73
2021/01/18 09:04:00;;;;;;;170.02;122.55;;;;;;;15.10;42.16;101765.09;5068619;28;20035;-75
2021/01/18 09:06:29;;;;;;;200.73;135.23;;;;;;;15.14;42.08;101758.66;5072320;28;20032;-72
2021/01/18 09:09:03;;;;;;;135.18;87.25;;;;;;;15.04;42.35;101755.34;5069770;28;20078;-73
2021/01/18 09:11:29;;;;;;;210.40;130.25;;;;;;;15.14;42.07;101742.13;5070453;28;20087;-73
2021/01/18 09:13:54;;;;;;;46.20;27.98;;;;;;;15.25;41.81;101753.66;5042561;28;20060;-74
2021/01/18 09:16:20;;;;;;;26.85;11.65;;;;;;;15.18;42.08;101754.09;5031001;28;20629;-74
2021/01/18 09:18:46;;;;;;;7.90;4.60;;;;;;;15.14;42.24;101752.34;5016951;28;20116;-73
2021/01/18 09:21:11;;;;;;;40.60;36.70;;;;;;;14.94;42.56;101749.00;5015580;28;20137;-75
2021/01/18 09:23:37;;;;;;;9.73;4.68;;;;;;;14.90;42.86;101752.72;5030173;28;20036;-74
2021/01/18 09:26:14;;;;;;;9.20;2.58;;;;;;;14.88;42.65;101744.78;5017493;28;20021;-75
2021/01/18 09:28:49;;;;;;;11.13;2.63;;;;;;;14.80;42.94;101747.50;5019120;28;20040;-75
2021/01/18 09:31:15;;;;;;;10.52;2.60;;;;;;;14.77;43.34;101748.13;5041352;28;20072;-82
2021/01/18 09:33:44;;;;;;;11.95;2.40;;;;;;;14.89;42.86;101748.38;5033446;28;20056;-74
2021/01/18 09:36:11;;;;;;;14.05;3.03;;;;;;;14.92;43.06;101744.97;5030464;28;20009;-75
2021/01/18 09:38:38;;;;;;;10.45;2.00;;;;;;;15.05;42.86;101743.25;5032712;28;20403;-75
2021/01/18 09:41:04;;;;;;;13.45;2.80;;;;;;;15.21;42.63;101744.41;5051618;28;20056;-74
2021/01/18 09:43:32;;;;;;;8.60;2.58;;;;;;;15.21;42.81;101747.16;5050648;28;20442;-77
2021/01/18 09:45:58;;;;;;;7.45;2.22;;;;;;;15.32;42.69;101734.72;5051211;28;20025;-73
2021/01/18 09:48:25;;;;;;;8.32;2.53;;;;;;;15.38;42.49;101740.88;5049944;28;20033;-78
2021/01/18 09:51:02;;;;;;;7.78;2.05;;;;;;;15.47;42.45;101741.72;5050882;28;20139;-80
2021/01/18 09:53:29;;;;;;;6.38;2.00;;;;;;;15.49;42.38;101737.53;5053850;28;20029;-75
2021/01/18 09:56:07;;;;;;;4.25;1.80;;;;;;;15.48;42.58;101735.06;5069341;28;20039;-75
2021/01/18 09:58:37;;;;;;;7.78;2.20;;;;;;;15.59;42.35;101728.13;5070880;28;20036;-74
2021/01/18 10:01:15;;;;;;;12.85;3.03;;;;;;;15.62;42.31;101729.44;5069891;28;20152;-78
2021/01/18 10:03:42;;;;;;;10.63;2.30;;;;;;;15.73;42.10;101730.75;5047421;28;20028;-78
2021/01/18 10:06:21;;;;;;;7.50;2.20;;;;;;;15.77;41.99;101728.97;5048856;28;20032;-82
2021/01/18 10:08:48;;;;;;;6.43;1.77;;;;;;;15.77;42.12;101726.22;5044826;28;20506;-84
2021/01/18 10:11:40;;;;;;;7.22;2.45;;;;;;;15.85;41.85;101728.16;5078671;28;20052;-81
2021/01/18 10:14:18;;;;;;;10.63;3.17;;;;;;;15.83;42.25;101722.16;5088653;28;20046;-76
2021/01/18 10:17:16;;;;;;;9.15;2.20;;;;;;;15.81;42.08;101729.94;5087383;28;20066;-75
2021/01/18 10:19:42;;;;;;;6.47;1.85;;;;;;;15.90;41.86;101732.69;5057574;28;20093;-75
2021/01/18 10:22:16;;;;;;;7.57;2.45;;;;;;;15.69;41.97;101729.78;5092872;28;20439;-75
2021/01/18 10:24:42;;;;;;;8.55;2.35;;;;;;;15.87;41.78;101720.38;5094060;28;20433;-76
2021/01/18 10:27:15;;;;;;;8.23;3.05;;;;;;;15.88;41.74;101718.44;5094039;28;20387;-76
2021/01/18 10:29:41;;;;;;;9.05;2.53;;;;;;;15.92;41.65;101708.38;5093423;28;20024;-75
2021/01/18 10:32:08;;;;;;;7.47;2.22;;;;;;;15.79;41.79;101710.16;5084077;28;20376;-81
2021/01/18 10:34:35;;;;;;;11.85;2.83;;;;;;;15.98;41.21;101702.38;5089220;28;20027;-79
2021/01/18 10:37:20;;;;;;;17.33;4.18;;;;;;;15.87;41.42;101701.09;5096648;28;20024;-76
2021/01/18 10:39:47;;;;;;;11.45;4.22;;;;;;;16.08;41.10;101698.47;5102672;28;20046;-77
2021/01/18 10:42:19;;;;;;;13.55;5.63;;;;;;;16.19;41.08;101698.94;5076480;28;20031;-76
2021/01/18 10:44:56;;;;;;;9.60;3.95;;;;;;;16.20;40.97;101706.88;5094536;28;20104;-76
2021/01/18 10:47:29;;;;;;;14.15;8.82;;;;;;;16.21;40.97;101696.66;5094242;28;20028;-75
2021/01/18 10:49:57;;;;;;;28.77;25.75;;;;;;;16.19;41.13;101685.16;5094191;28;20039;-76
2021/01/18 10:52:39;;;;;;;37.08;33.58;;;;;;;16.21;40.43;101694.72;5073743;28;20032;-76
2021/01/18 10:55:06;;;;;;;29.70;26.60;;;;;;;16.22;40.85;101687.25;5074777;28;20107;-75
2021/01/18 10:57:38;;;;;;;13.27;7.00;;;;;;;16.29;40.63;101682.03;5091808;28;20085;-76
2021/01/18 11:00:22;;;;;;;13.40;9.52;;;;;;;16.32;40.78;101682.22;5093323;28;20543;-77
2021/01/18 11:03:02;;;;;;;38.97;34.42;;;;;;;16.33;40.58;101675.53;5094469;28;20138;-76
2021/01/18 11:05:33;;;;;;;29.83;26.75;;;;;;;16.28;40.50;101674.91;5091798;28;20024;-76
2021/01/18 11:08:02;;;;;;;17.98;16.17;;;;;;;16.44;40.65;101675.97;5076024;28;20032;-76
2021/01/18 11:10:29;;;;;;;33.55;30.05;;;;;;;16.47;40.41;101672.56;5093371;28;20177;-77
2021/01/18 11:12:59;;;;;;;41.88;37.88;;;;;;;16.48;40.32;101674.19;5092713;28;20028;-76
2021/01/18 11:15:30;;;;;;;14.52;9.20;;;;;;;16.49;40.42;101669.50;5094576;28;20103;-76
2021/01/18 11:17:56;;;;;;;73.50;66.00;;;;;;;16.41;40.61;101665.63;5090060;28;20028;-78
2021/01/18 11:20:26;;;;;;;13.88;7.10;;;;;;;16.68;40.36;101663.56;5093434;28;20025;-85
2021/01/18 11:22:52;;;;;;;10.20;3.13;;;;;;;16.67;40.33;101656.41;5090479;28;20470;-81
2021/01/18 11:25:19;;;;;;;8.63;2.13;;;;;;;16.80;40.10;101653.47;5093862;28;20028;-78
2021/01/18 11:27:45;;;;;;;9.27;2.92;;;;;;;16.78;40.24;101647.47;5092796;28;20085;-77
2021/01/18 11:30:11;;;;;;;6.32;2.72;;;;;;;16.89;40.06;101642.38;5093804;28;20440;-78
2021/01/18 11:32:37;;;;;;;20.30;13.38;;;;;;;16.97;39.88;101630.47;5092787;28;20028;-78
2021/01/18 11:35:03;;;;;;;21.42;13.77;;;;;;;16.99;39.94;101627.38;5064083;28;20721;-78
2021/01/18 11:37:28;;;;;;;12.77;5.13;;;;;;;16.90;39.85;101622.72;5071921;28;20039;-78
2021/01/18 11:39:54;;;;;;;26.25;23.58;;;;;;;16.96;40.10;101620.56;5078442;28;20089;-78
2021/01/18 11:42:19;;;;;;;29.45;23.17;;;;;;;16.95;40.13;101612.63;5073879;28;20031;-79